« Back
NWS Peachtree City, Ga » Text Product » CSG Terminal Aerodrome Forecast


Printer-friendly Version
Current Version              Previous Versions:   1  2  3  4  5  6  7  8  9  

Terminal Aerodrome Forecast

070
FTUS42 KFFC 282114 AAB
TAFCSG
TAF AMD
KCSG 282114Z 2821/2918 10010KT P6SM VCSH BKN040 BKN250
      TEMPO 2821/2823 VRB15G25KT 3SM -TSRA BKN030CB
     FM290000 11006KT P6SM SCT050 SCT250
     FM290900 10005KT 5SM BR BKN009
     FM291400 12010KT P6SM VCSH BKN015 OVC035 PROB30 2914/2918 6SM
      -SHRA BKN010=

USA.gov is the U.S. government's official web portal to all federal, state and local government web resources and services.